Yeager Airport
KCRW : now visible

Airfield :











YOU CAN JOIN US ON...

 
LOGIN :

Register | Disclaimer

   EN    FR    IT 

 









Legend :    VFR   Marginal VFR   IFR   Intensive IFR   Very Intensive IFR
Visi :
Ceiling :
>= 8 km
>= 3000ft
5 to 8 km
1000 to 3000 ft
1500m to 5 km
500 to 1000 ft
800 to 1500m
200 to 500 ft
< 800m
< 200 ft
Symbols :   Thunderstorms  Fog  Heavy snow  Heavy precipitations  Wind > 20 kt







- Airport Elevation : 981 ft
- IATA code : CRW


KCRW - Yeager

CURRENT METAR :
  • 190954Z 00000KT 10SM FEW001 21/19 A3003 RMK AO2 SLP158 VLY FG T02060194

EXPIRED METARs :
  • 190854Z 00000KT 10SM FEW001 21/20 A3001 RMK AO2 SLP152 VLY FG T02060200 53003
  • 190824Z 00000KT 10SM FEW001 21/20 A3001 RMK AO2 VLY FG T02110200
  • 190754Z 00000KT 10SM CLR 21/20 A3001 RMK AO2 SLP149 T02110200

TAF KCRW
Valid from the 19 at 09:00 until the 20 at 06:00 UTC


190901Z 1909/2006 00000KT P6SM BCFG SCT250
FM191100 00000KT 5SM BR SCT150
FM191300 21004KT P6SM SCT150
No reported NOTAMs for that airfield.



MET'MAP, your aeronautical weather chart ! - Copyright ORBIFLY December 2007 - Disclaimer

ORBIFLY MET'MAP TEAM :

Programming & Development : Alexandra Zaïnal
Concept & Development : Baudouin d'Aumeries
Co-Development & Prog : Marc-Olivier Méhu
Technical & hardware support : Manuel Goepfert

Contact : metmap@orbifly.com




SOURCES & CREDITS :

   NOAA       Earth
Advisory